Terminal Aerodrome Forecast
Issued by NWS

Home | Current Version | Previous Version | Text Only | Print | Product List | Glossary On
Versions: 1 2 3 4 5 6 7 8 9 10 11 12 13 14 15 16 17 18 19 20 21
000
FTUS43 KMPX 231700
TAFRWF
TAF
KRWF 231720Z 2318/2418 09007KT P6SM BKN005 OVC015
     FM232000 10010KT P6SM VCSH BKN025 BKN080
     FM232300 10012G21KT P6SM SCT030 BKN080
     FM240300 13011KT P6SM SCT030 BKN060 PROB30 2404/2408 3SM -TSRA
      BR OVC015CB
     FM240800 15008KT 4SM BR SCT007 BKN100
     FM241100 15007KT 3SM BR SCT007 OVC020
     FM241500 19008KT P6SM SCT025 BKN100=

USA.gov is the U.S. government's official web portal to all federal, state and local government web resources and services.